sensor_id;sensor_type;location;lat;lon;timestamp;P1;durP1;ratioP1;P2;durP2;ratioP2
67602;SDS011;54417;47.454;18.918;2023-05-14T00:00:58;12.00;;;5.72;;
67602;SDS011;54417;47.454;18.918;2023-05-14T00:06:09;7.97;;;6.57;;
67602;SDS011;54417;47.454;18.918;2023-05-14T00:11:13;11.52;;;4.88;;
67602;SDS011;54417;47.454;18.918;2023-05-14T00:16:18;7.15;;;5.60;;
67602;SDS011;54417;47.454;18.918;2023-05-14T00:21:22;9.20;;;5.20;;
67602;SDS011;54417;47.454;18.918;2023-05-14T00:26:31;6.72;;;5.55;;
67602;SDS011;54417;47.454;18.918;2023-05-14T00:31:36;7.80;;;5.45;;
67602;SDS011;54417;47.454;18.918;2023-05-14T00:36:45;7.67;;;5.60;;
67602;SDS011;54417;47.454;18.918;2023-05-14T00:41:48;6.78;;;5.85;;
67602;SDS011;54417;47.454;18.918;2023-05-14T00:46:59;6.03;;;5.10;;
67602;SDS011;54417;47.454;18.918;2023-05-14T00:52:03;6.75;;;5.22;;
67602;SDS011;54417;47.454;18.918;2023-05-14T00:57:13;10.30;;;5.90;;
67602;SDS011;54417;47.454;18.918;2023-05-14T01:02:23;7.57;;;5.57;;
67602;SDS011;54417;47.454;18.918;2023-05-14T01:07:29;7.28;;;5.57;;
67602;SDS011;54417;47.454;18.918;2023-05-14T01:12:46;7.97;;;5.53;;
67602;SDS011;54417;47.454;18.918;2023-05-14T01:17:56;8.35;;;5.53;;
67602;SDS011;54417;47.454;18.918;2023-05-14T01:23:03;7.65;;;5.13;;
67602;SDS011;54417;47.454;18.918;2023-05-14T01:28:09;6.30;;;5.50;;
67602;SDS011;54417;47.454;18.918;2023-05-14T01:33:20;5.70;;;5.13;;
67602;SDS011;54417;47.454;18.918;2023-05-14T01:38:27;5.40;;;4.90;;
67602;SDS011;54417;47.454;18.918;2023-05-14T01:43:35;7.93;;;5.68;;
67602;SDS011;54417;47.454;18.918;2023-05-14T01:48:45;8.25;;;4.93;;
67602;SDS011;54417;47.454;18.918;2023-05-14T01:53:55;6.97;;;4.70;;
67602;SDS011;54417;47.454;18.918;2023-05-14T01:58:59;7.30;;;5.43;;
67602;SDS011;54417;47.454;18.918;2023-05-14T02:04:08;5.53;;;4.30;;
67602;SDS011;54417;47.454;18.918;2023-05-14T02:09:18;5.90;;;4.63;;
67602;SDS011;54417;47.454;18.918;2023-05-14T02:14:26;7.40;;;4.93;;
67602;SDS011;54417;47.454;18.918;2023-05-14T02:19:35;5.90;;;4.82;;
67602;SDS011;54417;47.454;18.918;2023-05-14T02:24:45;5.07;;;4.35;;
67602;SDS011;54417;47.454;18.918;2023-05-14T02:29:57;8.00;;;4.82;;
67602;SDS011;54417;47.454;18.918;2023-05-14T02:35:02;5.57;;;4.20;;
67602;SDS011;54417;47.454;18.918;2023-05-14T02:40:12;5.43;;;4.35;;
67602;SDS011;54417;47.454;18.918;2023-05-14T02:45:21;9.95;;;4.57;;
67602;SDS011;54417;47.454;18.918;2023-05-14T02:50:30;6.97;;;4.63;;
67602;SDS011;54417;47.454;18.918;2023-05-14T02:55:35;5.57;;;4.65;;
67602;SDS011;54417;47.454;18.918;2023-05-14T03:00:39;7.85;;;4.45;;
67602;SDS011;54417;47.454;18.918;2023-05-14T03:05:48;7.00;;;5.15;;
67602;SDS011;54417;47.454;18.918;2023-05-14T03:10:59;6.93;;;4.93;;
67602;SDS011;54417;47.454;18.918;2023-05-14T03:16:03;7.40;;;4.72;;
67602;SDS011;54417;47.454;18.918;2023-05-14T03:21:12;6.45;;;4.60;;
67602;SDS011;54417;47.454;18.918;2023-05-14T03:26:18;5.90;;;4.80;;
67602;SDS011;54417;47.454;18.918;2023-05-14T03:31:27;8.10;;;4.97;;
67602;SDS011;54417;47.454;18.918;2023-05-14T03:36:36;8.30;;;4.80;;
67602;SDS011;54417;47.454;18.918;2023-05-14T03:41:47;6.75;;;5.18;;
67602;SDS011;54417;47.454;18.918;2023-05-14T03:46:51;6.32;;;4.50;;
67602;SDS011;54417;47.454;18.918;2023-05-14T03:51:54;7.05;;;5.07;;
67602;SDS011;54417;47.454;18.918;2023-05-14T03:57:02;6.18;;;4.95;;
67602;SDS011;54417;47.454;18.918;2023-05-14T04:02:06;5.68;;;4.93;;
67602;SDS011;54417;47.454;18.918;2023-05-14T04:07:10;9.70;;;4.88;;
67602;SDS011;54417;47.454;18.918;2023-05-14T04:12:20;4.70;;;3.90;;
67602;SDS011;54417;47.454;18.918;2023-05-14T04:17:24;4.30;;;3.78;;
67602;SDS011;54417;47.454;18.918;2023-05-14T04:22:33;4.93;;;4.20;;
67602;SDS011;54417;47.454;18.918;2023-05-14T04:27:43;6.07;;;4.32;;
67602;SDS011;54417;47.454;18.918;2023-05-14T04:32:51;8.13;;;4.30;;
67602;SDS011;54417;47.454;18.918;2023-05-14T04:38:00;6.50;;;4.53;;
67602;SDS011;54417;47.454;18.918;2023-05-14T04:43:10;7.43;;;4.38;;
67602;SDS011;54417;47.454;18.918;2023-05-14T04:48:14;3.83;;;3.40;;
67602;SDS011;54417;47.454;18.918;2023-05-14T04:53:23;5.03;;;3.38;;
67602;SDS011;54417;47.454;18.918;2023-05-14T04:58:28;5.80;;;3.95;;
67602;SDS011;54417;47.454;18.918;2023-05-14T05:03:41;3.25;;;2.72;;
67602;SDS011;54417;47.454;18.918;2023-05-14T05:08:49;3.72;;;3.38;;
67602;SDS011;54417;47.454;18.918;2023-05-14T05:13:55;4.55;;;3.70;;
67602;SDS011;54417;47.454;18.918;2023-05-14T05:19:03;5.43;;;3.93;;
67602;SDS011;54417;47.454;18.918;2023-05-14T05:24:12;6.90;;;3.92;;
67602;SDS011;54417;47.454;18.918;2023-05-14T05:29:23;3.97;;;3.63;;
67602;SDS011;54417;47.454;18.918;2023-05-14T05:34:33;8.40;;;4.28;;
67602;SDS011;54417;47.454;18.918;2023-05-14T05:39:42;5.40;;;3.70;;
67602;SDS011;54417;47.454;18.918;2023-05-14T05:44:53;4.47;;;3.78;;
67602;SDS011;54417;47.454;18.918;2023-05-14T05:50:02;5.13;;;4.15;;
67602;SDS011;54417;47.454;18.918;2023-05-14T05:55:11;7.55;;;4.65;;
67602;SDS011;54417;47.454;18.918;2023-05-14T06:00:21;6.47;;;4.40;;
67602;SDS011;54417;47.454;18.918;2023-05-14T06:05:26;5.13;;;4.63;;
67602;SDS011;54417;47.454;18.918;2023-05-14T06:10:30;8.93;;;5.28;;
67602;SDS011;54417;47.454;18.918;2023-05-14T06:15:41;7.25;;;4.95;;
67602;SDS011;54417;47.454;18.918;2023-05-14T06:20:45;6.25;;;5.45;;
67602;SDS011;54417;47.454;18.918;2023-05-14T06:25:54;5.57;;;4.78;;
67602;SDS011;54417;47.454;18.918;2023-05-14T06:31:04;10.02;;;5.55;;
67602;SDS011;54417;47.454;18.918;2023-05-14T06:36:13;7.47;;;5.37;;
67602;SDS011;54417;47.454;18.918;2023-05-14T06:41:17;5.63;;;4.75;;
67602;SDS011;54417;47.454;18.918;2023-05-14T06:46:27;5.90;;;5.30;;
67602;SDS011;54417;47.454;18.918;2023-05-14T06:51:36;6.60;;;5.03;;
67602;SDS011;54417;47.454;18.918;2023-05-14T06:56:40;9.23;;;5.20;;
67602;SDS011;54417;47.454;18.918;2023-05-14T07:01:45;14.68;;;5.85;;
67602;SDS011;54417;47.454;18.918;2023-05-14T07:06:54;5.87;;;5.23;;
67602;SDS011;54417;47.454;18.918;2023-05-14T07:12:03;14.02;;;4.97;;
67602;SDS011;54417;47.454;18.918;2023-05-14T07:17:14;8.13;;;5.13;;
67602;SDS011;54417;47.454;18.918;2023-05-14T07:22:23;9.45;;;6.22;;
67602;SDS011;54417;47.454;18.918;2023-05-14T07:27:32;7.75;;;5.50;;
67602;SDS011;54417;47.454;18.918;2023-05-14T07:32:43;11.38;;;5.05;;
67602;SDS011;54417;47.454;18.918;2023-05-14T07:37:52;7.97;;;4.88;;
67602;SDS011;54417;47.454;18.918;2023-05-14T07:43:01;6.93;;;4.85;;
67602;SDS011;54417;47.454;18.918;2023-05-14T07:48:11;6.93;;;4.80;;
67602;SDS011;54417;47.454;18.918;2023-05-14T07:53:15;7.93;;;4.78;;
67602;SDS011;54417;47.454;18.918;2023-05-14T07:58:24;4.78;;;4.28;;
67602;SDS011;54417;47.454;18.918;2023-05-14T08:03:30;8.77;;;4.80;;
67602;SDS011;54417;47.454;18.918;2023-05-14T08:08:34;7.78;;;5.00;;
67602;SDS011;54417;47.454;18.918;2023-05-14T08:13:37;7.20;;;5.20;;
67602;SDS011;54417;47.454;18.918;2023-05-14T08:18:43;13.35;;;5.53;;
67602;SDS011;54417;47.454;18.918;2023-05-14T08:23:51;8.30;;;4.73;;
67602;SDS011;54417;47.454;18.918;2023-05-14T08:29:00;8.93;;;5.22;;
67602;SDS011;54417;47.454;18.918;2023-05-14T08:34:10;7.47;;;5.57;;
67602;SDS011;54417;47.454;18.918;2023-05-14T08:39:14;6.57;;;4.82;;
67602;SDS011;54417;47.454;18.918;2023-05-14T08:44:25;6.93;;;5.03;;
67602;SDS011;54417;47.454;18.918;2023-05-14T08:49:41;7.07;;;4.68;;
67602;SDS011;54417;47.454;18.918;2023-05-14T08:54:47;7.60;;;4.75;;
67602;SDS011;54417;47.454;18.918;2023-05-14T08:59:58;6.90;;;5.50;;
67602;SDS011;54417;47.454;18.918;2023-05-14T09:05:04;7.47;;;5.30;;
67602;SDS011;54417;47.454;18.918;2023-05-14T09:10:10;11.73;;;6.40;;
67602;SDS011;54417;47.454;18.918;2023-05-14T09:15:19;7.63;;;5.22;;
67602;SDS011;54417;47.454;18.918;2023-05-14T09:20:29;12.25;;;5.35;;
67602;SDS011;54417;47.454;18.918;2023-05-14T09:25:34;6.68;;;5.55;;
67602;SDS011;54417;47.454;18.918;2023-05-14T09:30:37;6.50;;;5.35;;
67602;SDS011;54417;47.454;18.918;2023-05-14T09:35:48;11.13;;;6.20;;
67602;SDS011;54417;47.454;18.918;2023-05-14T09:40:52;7.15;;;5.72;;
67602;SDS011;54417;47.454;18.918;2023-05-14T09:45:56;8.82;;;6.43;;
67602;SDS011;54417;47.454;18.918;2023-05-14T09:51:01;7.15;;;5.50;;
67602;SDS011;54417;47.454;18.918;2023-05-14T09:56:06;8.15;;;6.00;;
67602;SDS011;54417;47.454;18.918;2023-05-14T10:01:15;7.80;;;5.85;;
67602;SDS011;54417;47.454;18.918;2023-05-14T10:06:24;9.80;;;6.05;;
67602;SDS011;54417;47.454;18.918;2023-05-14T10:11:36;14.48;;;6.40;;
67602;SDS011;54417;47.454;18.918;2023-05-14T10:16:41;7.72;;;6.35;;
67602;SDS011;54417;47.454;18.918;2023-05-14T10:21:56;6.90;;;6.10;;
67602;SDS011;54417;47.454;18.918;2023-05-14T10:27:06;10.13;;;7.18;;
67602;SDS011;54417;47.454;18.918;2023-05-14T10:32:10;9.95;;;5.90;;
67602;SDS011;54417;47.454;18.918;2023-05-14T10:37:24;7.07;;;5.07;;
67602;SDS011;54417;47.454;18.918;2023-05-14T10:42:30;8.23;;;5.40;;
67602;SDS011;54417;47.454;18.918;2023-05-14T10:47:42;6.35;;;4.65;;
67602;SDS011;54417;47.454;18.918;2023-05-14T10:52:49;7.38;;;5.22;;
67602;SDS011;54417;47.454;18.918;2023-05-14T10:57:54;6.95;;;5.00;;
67602;SDS011;54417;47.454;18.918;2023-05-14T11:03:07;6.97;;;4.70;;
67602;SDS011;54417;47.454;18.918;2023-05-14T11:08:20;7.82;;;6.00;;
67602;SDS011;54417;47.454;18.918;2023-05-14T11:13:28;6.13;;;5.43;;
67602;SDS011;54417;47.454;18.918;2023-05-14T11:18:33;7.78;;;5.97;;
67602;SDS011;54417;47.454;18.918;2023-05-14T11:23:46;11.25;;;5.70;;
67602;SDS011;54417;47.454;18.918;2023-05-14T11:28:50;8.68;;;5.93;;
67602;SDS011;54417;47.454;18.918;2023-05-14T11:33:59;7.38;;;5.70;;
67602;SDS011;54417;47.454;18.918;2023-05-14T11:39:17;8.70;;;6.18;;
67602;SDS011;54417;47.454;18.918;2023-05-14T11:44:26;8.80;;;6.63;;
67602;SDS011;54417;47.454;18.918;2023-05-14T11:49:30;12.15;;;7.22;;
67602;SDS011;54417;47.454;18.918;2023-05-14T11:54:38;9.30;;;7.45;;
67602;SDS011;54417;47.454;18.918;2023-05-14T11:59:43;12.30;;;6.75;;
67602;SDS011;54417;47.454;18.918;2023-05-14T12:04:52;9.55;;;7.65;;
67602;SDS011;54417;47.454;18.918;2023-05-14T12:10:03;8.50;;;6.18;;
67602;SDS011;54417;47.454;18.918;2023-05-14T12:15:13;8.10;;;6.70;;
67602;SDS011;54417;47.454;18.918;2023-05-14T12:20:23;7.67;;;6.43;;
67602;SDS011;54417;47.454;18.918;2023-05-14T12:25:30;11.52;;;7.43;;
67602;SDS011;54417;47.454;18.918;2023-05-14T12:30:39;10.95;;;6.97;;
67602;SDS011;54417;47.454;18.918;2023-05-14T12:35:47;10.95;;;6.72;;
67602;SDS011;54417;47.454;18.918;2023-05-14T12:40:58;7.60;;;5.97;;
67602;SDS011;54417;47.454;18.918;2023-05-14T12:46:06;14.70;;;7.30;;
67602;SDS011;54417;47.454;18.918;2023-05-14T12:51:15;10.38;;;6.57;;
67602;SDS011;54417;47.454;18.918;2023-05-14T12:56:25;9.63;;;7.72;;
67602;SDS011;54417;47.454;18.918;2023-05-14T13:01:34;10.57;;;7.63;;
67602;SDS011;54417;47.454;18.918;2023-05-14T13:06:39;11.30;;;7.93;;
67602;SDS011;54417;47.454;18.918;2023-05-14T13:11:49;10.50;;;8.05;;
67602;SDS011;54417;47.454;18.918;2023-05-14T13:16:53;10.98;;;7.80;;
67602;SDS011;54417;47.454;18.918;2023-05-14T13:22:02;11.20;;;7.78;;
67602;SDS011;54417;47.454;18.918;2023-05-14T13:27:07;10.32;;;7.45;;
67602;SDS011;54417;47.454;18.918;2023-05-14T13:32:16;9.57;;;7.93;;
67602;SDS011;54417;47.454;18.918;2023-05-14T13:37:20;11.68;;;7.28;;
67602;SDS011;54417;47.454;18.918;2023-05-14T13:42:30;8.18;;;6.88;;
67602;SDS011;54417;47.454;18.918;2023-05-14T13:47:39;8.07;;;6.63;;
67602;SDS011;54417;47.454;18.918;2023-05-14T13:52:42;14.50;;;8.32;;
67602;SDS011;54417;47.454;18.918;2023-05-14T13:57:48;15.98;;;8.95;;
67602;SDS011;54417;47.454;18.918;2023-05-14T14:02:57;13.27;;;9.07;;
67602;SDS011;54417;47.454;18.918;2023-05-14T14:08:05;9.98;;;7.75;;
67602;SDS011;54417;47.454;18.918;2023-05-14T14:13:31;12.63;;;9.07;;
67602;SDS011;54417;47.454;18.918;2023-05-14T14:18:40;14.17;;;11.00;;
67602;SDS011;54417;47.454;18.918;2023-05-14T14:23:44;14.00;;;10.23;;
67602;SDS011;54417;47.454;18.918;2023-05-14T14:28:55;18.90;;;10.02;;
67602;SDS011;54417;47.454;18.918;2023-05-14T14:34:04;13.82;;;10.07;;
67602;SDS011;54417;47.454;18.918;2023-05-14T14:39:13;17.33;;;10.43;;
67602;SDS011;54417;47.454;18.918;2023-05-14T14:44:23;13.18;;;9.30;;
67602;SDS011;54417;47.454;18.918;2023-05-14T14:49:32;14.30;;;8.77;;
67602;SDS011;54417;47.454;18.918;2023-05-14T14:54:37;8.80;;;6.00;;
67602;SDS011;54417;47.454;18.918;2023-05-14T14:59:47;6.65;;;5.25;;
67602;SDS011;54417;47.454;18.918;2023-05-14T15:04:56;9.23;;;6.37;;
67602;SDS011;54417;47.454;18.918;2023-05-14T15:10:00;7.53;;;5.88;;
67602;SDS011;54417;47.454;18.918;2023-05-14T15:15:10;9.23;;;5.18;;
67602;SDS011;54417;47.454;18.918;2023-05-14T15:20:19;6.07;;;4.37;;
67602;SDS011;54417;47.454;18.918;2023-05-14T15:25:28;10.45;;;4.82;;
67602;SDS011;54417;47.454;18.918;2023-05-14T15:30:33;6.75;;;4.55;;
67602;SDS011;54417;47.454;18.918;2023-05-14T15:35:42;8.60;;;5.17;;
67602;SDS011;54417;47.454;18.918;2023-05-14T15:40:45;8.10;;;5.05;;
67602;SDS011;54417;47.454;18.918;2023-05-14T15:45:56;7.20;;;5.22;;
67602;SDS011;54417;47.454;18.918;2023-05-14T15:51:00;8.10;;;4.80;;
67602;SDS011;54417;47.454;18.918;2023-05-14T15:56:04;7.93;;;6.38;;
67602;SDS011;54417;47.454;18.918;2023-05-14T16:01:15;5.07;;;4.50;;
67602;SDS011;54417;47.454;18.918;2023-05-14T16:06:24;4.77;;;4.17;;
67602;SDS011;54417;47.454;18.918;2023-05-14T16:11:33;7.00;;;4.47;;
67602;SDS011;54417;47.454;18.918;2023-05-14T16:16:38;6.05;;;4.68;;
67602;SDS011;54417;47.454;18.918;2023-05-14T16:21:47;6.25;;;5.15;;
67602;SDS011;54417;47.454;18.918;2023-05-14T16:26:55;9.57;;;6.55;;
67602;SDS011;54417;47.454;18.918;2023-05-14T16:32:02;6.35;;;4.80;;
67602;SDS011;54417;47.454;18.918;2023-05-14T16:37:11;8.10;;;5.53;;
67602;SDS011;54417;47.454;18.918;2023-05-14T16:42:16;9.65;;;7.18;;
67602;SDS011;54417;47.454;18.918;2023-05-14T16:47:26;8.75;;;7.82;;
67602;SDS011;54417;47.454;18.918;2023-05-14T16:52:30;6.28;;;5.15;;
67602;SDS011;54417;47.454;18.918;2023-05-14T16:57:39;5.90;;;5.15;;
67602;SDS011;54417;47.454;18.918;2023-05-14T17:02:46;6.65;;;5.50;;
67602;SDS011;54417;47.454;18.918;2023-05-14T17:07:57;8.50;;;5.38;;
67602;SDS011;54417;47.454;18.918;2023-05-14T17:13:06;12.40;;;5.63;;
67602;SDS011;54417;47.454;18.918;2023-05-14T17:18:11;5.68;;;5.18;;
67602;SDS011;54417;47.454;18.918;2023-05-14T17:23:19;8.75;;;5.90;;
67602;SDS011;54417;47.454;18.918;2023-05-14T17:28:28;5.78;;;4.60;;
67602;SDS011;54417;47.454;18.918;2023-05-14T17:33:38;7.95;;;5.40;;
67602;SDS011;54417;47.454;18.918;2023-05-14T17:38:47;7.20;;;5.73;;
67602;SDS011;54417;47.454;18.918;2023-05-14T17:43:51;8.95;;;6.28;;
67602;SDS011;54417;47.454;18.918;2023-05-14T17:49:01;9.00;;;5.63;;
67602;SDS011;54417;47.454;18.918;2023-05-14T17:54:10;8.70;;;6.97;;
67602;SDS011;54417;47.454;18.918;2023-05-14T17:59:19;9.95;;;6.85;;
67602;SDS011;54417;47.454;18.918;2023-05-14T18:04:31;9.60;;;7.32;;
67602;SDS011;54417;47.454;18.918;2023-05-14T18:09:40;8.43;;;7.20;;
67602;SDS011;54417;47.454;18.918;2023-05-14T18:14:49;8.93;;;8.02;;
67602;SDS011;54417;47.454;18.918;2023-05-14T18:19:54;8.05;;;6.28;;
67602;SDS011;54417;47.454;18.918;2023-05-14T18:25:03;8.87;;;7.50;;
67602;SDS011;54417;47.454;18.918;2023-05-14T18:30:08;9.48;;;7.32;;
67602;SDS011;54417;47.454;18.918;2023-05-14T18:35:15;11.07;;;7.25;;
67602;SDS011;54417;47.454;18.918;2023-05-14T18:40:30;10.63;;;7.97;;
67602;SDS011;54417;47.454;18.918;2023-05-14T18:45:39;9.70;;;7.90;;
67602;SDS011;54417;47.454;18.918;2023-05-14T18:50:49;9.68;;;7.85;;
67602;SDS011;54417;47.454;18.918;2023-05-14T18:55:58;10.53;;;7.50;;
67602;SDS011;54417;47.454;18.918;2023-05-14T19:01:07;7.40;;;6.63;;
67602;SDS011;54417;47.454;18.918;2023-05-14T19:06:17;8.73;;;6.57;;
67602;SDS011;54417;47.454;18.918;2023-05-14T19:11:26;10.47;;;7.13;;
67602;SDS011;54417;47.454;18.918;2023-05-14T19:16:35;9.52;;;7.45;;
67602;SDS011;54417;47.454;18.918;2023-05-14T19:21:45;12.45;;;7.03;;
67602;SDS011;54417;47.454;18.918;2023-05-14T19:26:54;10.73;;;7.47;;
67602;SDS011;54417;47.454;18.918;2023-05-14T19:31:58;10.95;;;7.90;;
67602;SDS011;54417;47.454;18.918;2023-05-14T19:37:08;8.90;;;6.45;;
67602;SDS011;54417;47.454;18.918;2023-05-14T19:42:17;7.93;;;7.03;;
67602;SDS011;54417;47.454;18.918;2023-05-14T19:47:21;12.82;;;7.50;;
67602;SDS011;54417;47.454;18.918;2023-05-14T19:52:31;7.97;;;7.15;;
67602;SDS011;54417;47.454;18.918;2023-05-14T19:57:39;7.47;;;6.70;;
67602;SDS011;54417;47.454;18.918;2023-05-14T20:02:48;9.50;;;7.75;;
67602;SDS011;54417;47.454;18.918;2023-05-14T20:07:59;7.50;;;6.80;;
67602;SDS011;54417;47.454;18.918;2023-05-14T20:13:08;9.20;;;7.45;;
67602;SDS011;54417;47.454;18.918;2023-05-14T20:18:12;8.60;;;7.38;;
67602;SDS011;54417;47.454;18.918;2023-05-14T20:23:22;8.90;;;7.68;;
67602;SDS011;54417;47.454;18.918;2023-05-14T20:28:31;10.30;;;8.20;;
67602;SDS011;54417;47.454;18.918;2023-05-14T20:33:40;8.82;;;7.50;;
67602;SDS011;54417;47.454;18.918;2023-05-14T20:38:50;9.02;;;7.88;;
67602;SDS011;54417;47.454;18.918;2023-05-14T20:43:59;11.88;;;8.50;;
67602;SDS011;54417;47.454;18.918;2023-05-14T20:49:08;10.93;;;8.27;;
67602;SDS011;54417;47.454;18.918;2023-05-14T20:54:18;11.23;;;8.73;;
67602;SDS011;54417;47.454;18.918;2023-05-14T20:59:27;12.30;;;7.97;;
67602;SDS011;54417;47.454;18.918;2023-05-14T21:04:31;11.30;;;9.07;;
67602;SDS011;54417;47.454;18.918;2023-05-14T21:09:37;12.68;;;8.57;;
67602;SDS011;54417;47.454;18.918;2023-05-14T21:14:41;11.70;;;8.45;;
67602;SDS011;54417;47.454;18.918;2023-05-14T21:19:49;13.52;;;8.48;;
67602;SDS011;54417;47.454;18.918;2023-05-14T21:24:54;13.57;;;8.93;;
67602;SDS011;54417;47.454;18.918;2023-05-14T21:30:06;12.07;;;8.68;;
67602;SDS011;54417;47.454;18.918;2023-05-14T21:35:22;16.90;;;8.95;;
67602;SDS011;54417;47.454;18.918;2023-05-14T21:40:32;10.57;;;8.65;;
67602;SDS011;54417;47.454;18.918;2023-05-14T21:45:41;11.57;;;9.53;;
67602;SDS011;54417;47.454;18.918;2023-05-14T21:50:51;11.75;;;8.60;;
67602;SDS011;54417;47.454;18.918;2023-05-14T21:55:56;10.00;;;7.57;;
67602;SDS011;54417;47.454;18.918;2023-05-14T22:01:04;11.73;;;8.37;;
67602;SDS011;54417;47.454;18.918;2023-05-14T22:06:15;11.70;;;8.70;;
67602;SDS011;54417;47.454;18.918;2023-05-14T22:11:20;10.75;;;8.00;;
67602;SDS011;54417;47.454;18.918;2023-05-14T22:16:29;16.20;;;8.13;;
67602;SDS011;54417;47.454;18.918;2023-05-14T22:21:37;8.60;;;7.43;;
67602;SDS011;54417;47.454;18.918;2023-05-14T22:26:47;7.90;;;6.95;;
67602;SDS011;54417;47.454;18.918;2023-05-14T22:31:57;10.68;;;7.05;;
67602;SDS011;54417;47.454;18.918;2023-05-14T22:37:00;8.82;;;7.07;;
67602;SDS011;54417;47.454;18.918;2023-05-14T22:42:10;8.13;;;6.95;;
67602;SDS011;54417;47.454;18.918;2023-05-14T22:47:14;8.75;;;6.80;;
67602;SDS011;54417;47.454;18.918;2023-05-14T22:52:18;8.43;;;6.70;;
67602;SDS011;54417;47.454;18.918;2023-05-14T22:57:23;10.73;;;7.13;;
67602;SDS011;54417;47.454;18.918;2023-05-14T23:02:27;9.70;;;6.75;;
67602;SDS011;54417;47.454;18.918;2023-05-14T23:07:36;9.50;;;6.78;;
67602;SDS011;54417;47.454;18.918;2023-05-14T23:12:46;9.95;;;7.18;;
67602;SDS011;54417;47.454;18.918;2023-05-14T23:17:54;8.63;;;6.90;;
67602;SDS011;54417;47.454;18.918;2023-05-14T23:23:03;9.88;;;7.47;;
67602;SDS011;54417;47.454;18.918;2023-05-14T23:28:14;9.95;;;8.13;;
67602;SDS011;54417;47.454;18.918;2023-05-14T23:33:22;12.57;;;8.50;;
67602;SDS011;54417;47.454;18.918;2023-05-14T23:38:31;8.73;;;7.72;;
67602;SDS011;54417;47.454;18.918;2023-05-14T23:43:36;11.30;;;7.70;;
67602;SDS011;54417;47.454;18.918;2023-05-14T23:48:40;9.20;;;7.97;;
67602;SDS011;54417;47.454;18.918;2023-05-14T23:53:49;9.02;;;7.43;;
67602;SDS011;54417;47.454;18.918;2023-05-14T23:59:03;9.57;;;8.55;;
